Time;durP1;ratioP1;P1;durP2;ratioP2;P2;SDS_P1;SDS_P2;PMS_P1;PMS_P2;Temp;Humidity;BMP_temperature;BMP_pressure;BME280_temperature;BME280_humidity;BME280_pressure;Samples;Min_cycle;Max_cycle;Signal;HPM_P1;HPM_P2
2022/03/25 00:02:36;;;;;;;;;12.00;6.00;;;;;;;;4962209;28;51135;-55
2022/03/25 00:05:20;;;;;;;;;3.75;3.75;;;;;;;;4975650;28;51036;-56
2022/03/25 00:08:06;;;;;;;;;4.50;4.00;;;;;;;;4966422;28;51121;-54
2022/03/25 00:10:50;;;;;;;;;4.25;2.75;;;;;;;;4981531;28;51090;-57
2022/03/25 00:13:35;;;;;;;;;5.50;4.00;;;;;;;;4974229;28;51002;-56
2022/03/25 00:16:21;;;;;;;;;7.50;4.25;;;;;;;;4974958;28;51322;-57
2022/03/25 00:19:08;;;;;;;;;4.25;4.00;;;;;;;;4980700;28;51056;-57
2022/03/25 00:21:54;;;;;;;;;6.75;3.25;;;;;;;;4980921;28;51058;-55
2022/03/25 00:24:41;;;;;;;;;7.75;3.50;;;;;;;;4980475;28;51031;-57
2022/03/25 00:27:27;;;;;;;;;4.75;2.75;;;;;;;;4981068;28;51161;-55
2022/03/25 00:30:14;;;;;;;;;7.00;3.75;;;;;;;;4980772;28;51126;-57
2022/03/25 00:33:02;;;;;;;;;5.00;3.00;;;;;;;;4980296;28;51043;-57
2022/03/25 00:35:48;;;;;;;;;6.00;3.50;;;;;;;;4981007;28;51372;-57
2022/03/25 00:38:34;;;;;;;;;13.00;4.25;;;;;;;;4980386;28;51173;-57
2022/03/25 00:41:32;;;;;;;;;6.75;4.00;;;;;;;;4980865;28;51004;-55
2022/03/25 00:44:19;;;;;;;;;7.75;3.75;;;;;;;;4980463;28;51123;-57
2022/03/25 00:47:04;;;;;;;;;6.00;4.25;;;;;;;;4980185;28;51160;-56
2022/03/25 00:49:59;;;;;;;;;6.50;3.00;;;;;;;;4980838;28;51115;-57
2022/03/25 00:52:44;;;;;;;;;8.00;4.75;;;;;;;;4980725;28;50953;-56
2022/03/25 00:55:31;;;;;;;;;7.25;4.75;;;;;;;;4937771;28;51023;-57
2022/03/25 00:58:18;;;;;;;;;9.75;4.00;;;;;;;;4980317;28;51194;-57
2022/03/25 01:01:25;;;;;;;;;8.00;4.00;;;;;;;;4980452;28;51188;-57
2022/03/25 01:04:23;;;;;;;;;9.00;3.50;;;;;;;;4980263;28;51211;-55
2022/03/25 01:07:07;;;;;;;;;5.50;4.00;;;;;;;;4980671;28;51088;-55
2022/03/25 01:10:03;;;;;;;;;8.50;4.25;;;;;;;;4980405;28;51156;-57
2022/03/25 01:12:58;;;;;;;;;7.50;5.00;;;;;;;;4979523;28;51141;-57
2022/03/25 01:15:51;;;;;;;;;6.50;3.00;;;;;;;;4980241;28;51409;-55
2022/03/25 01:18:38;;;;;;;;;6.25;5.75;;;;;;;;4979816;28;51197;-57
2022/03/25 01:21:23;;;;;;;;;5.00;4.50;;;;;;;;4972296;28;51169;-57
2022/03/25 01:24:09;;;;;;;;;5.00;3.25;;;;;;;;4974280;28;51155;-58
2022/03/25 01:26:56;;;;;;;;;10.50;4.00;;;;;;;;4979859;28;51107;-56
2022/03/25 01:29:50;;;;;;;;;3.50;3.00;;;;;;;;4978463;28;51362;-58
2022/03/25 01:32:44;;;;;;;;;7.25;2.75;;;;;;;;4960881;28;51182;-56
2022/03/25 01:35:30;;;;;;;;;4.25;2.75;;;;;;;;4975412;28;51071;-56
2022/03/25 01:38:17;;;;;;;;;6.00;4.00;;;;;;;;4979935;28;51436;-57
2022/03/25 01:41:04;;;;;;;;;8.50;3.00;;;;;;;;4962735;28;51220;-57
2022/03/25 01:43:53;;;;;;;;;5.75;4.75;;;;;;;;4945885;28;51140;-57
2022/03/25 01:46:37;;;;;;;;;6.25;4.00;;;;;;;;4960200;28;51220;-55
2022/03/25 01:49:26;;;;;;;;;5.75;3.75;;;;;;;;4974399;28;51091;-57
2022/03/25 01:52:20;;;;;;;;;4.25;4.00;;;;;;;;4979900;28;51376;-56
2022/03/25 01:55:16;;;;;;;;;3.00;3.00;;;;;;;;4979301;28;51170;-54
2022/03/25 01:58:01;;;;;;;;;3.67;3.33;;;;;;;;4964578;28;51106;-56
2022/03/25 02:00:46;;;;;;;;;8.00;3.75;;;;;;;;4979455;28;51395;-56
2022/03/25 02:03:31;;;;;;;;;7.25;4.50;;;;;;;;4967008;28;51166;-57
2022/03/25 02:06:21;;;;;;;;;5.50;2.75;;;;;;;;4978924;28;51265;-57
2022/03/25 02:09:09;;;;;;;;;4.75;3.50;;;;;;;;4979204;28;51086;-56
2022/03/25 02:11:56;;;;;;;;;5.00;3.75;;;;;;;;4959999;28;51173;-56
2022/03/25 02:14:41;;;;;;;;;8.75;3.00;;;;;;;;4959409;28;51190;-56
2022/03/25 02:17:29;;;;;;;;;5.00;3.75;;;;;;;;4979597;28;50972;-57
2022/03/25 02:20:15;;;;;;;;;5.00;3.50;;;;;;;;4978923;28;51138;-57
2022/03/25 02:23:01;;;;;;;;;7.25;2.75;;;;;;;;4979602;28;51056;-54
2022/03/25 02:25:51;;;;;;;;;5.00;3.75;;;;;;;;4979336;28;51439;-56
2022/03/25 02:28:46;;;;;;;;;5.75;4.00;;;;;;;;4960485;28;51118;-57
2022/03/25 02:31:30;;;;;;;;;8.25;4.25;;;;;;;;4978976;28;51075;-56
2022/03/25 02:34:26;;;;;;;;;5.00;3.50;;;;;;;;4979396;28;51144;-56
2022/03/25 02:37:11;;;;;;;;;4.00;1.00;;;;;;;;4963194;28;51387;-56
2022/03/25 02:39:55;;;;;;;;;7.00;2.50;;;;;;;;4974053;28;51168;-54
2022/03/25 02:42:41;;;;;;;;;6.00;3.25;;;;;;;;4978317;28;51358;-57
2022/03/25 02:45:25;;;;;;;;;4.50;3.50;;;;;;;;4979126;28;51087;-56
2022/03/25 02:48:14;;;;;;;;;3.25;3.25;;;;;;;;4981535;28;51064;-55
2022/03/25 02:51:04;;;;;;;;;3.50;3.50;;;;;;;;4982840;28;51349;-57
2022/03/25 02:54:00;;;;;;;;;4.25;3.00;;;;;;;;4979027;28;51108;-56
2022/03/25 02:56:46;;;;;;;;;4.75;4.00;;;;;;;;4977553;28;51187;-56
2022/03/25 02:59:35;;;;;;;;;5.25;3.25;;;;;;;;4974588;28;51223;-57
2022/03/25 03:02:19;;;;;;;;;6.00;3.00;;;;;;;;4964241;28;51476;-55
2022/03/25 03:05:17;;;;;;;;;3.50;2.25;;;;;;;;4976074;28;51033;-57
2022/03/25 03:08:09;;;;;;;;;3.00;3.00;;;;;;;;4982339;28;51028;-58
2022/03/25 03:11:02;;;;;;;;;4.25;2.75;;;;;;;;4965581;28;51119;-57
2022/03/25 03:13:48;;;;;;;;;5.50;4.00;;;;;;;;4982546;28;51122;-55
2022/03/25 03:16:34;;;;;;;;;6.50;4.75;;;;;;;;4982224;28;51170;-57
2022/03/25 03:19:18;;;;;;;;;4.25;3.50;;;;;;;;4967006;28;51180;-55
2022/03/25 03:22:03;;;;;;;;;6.25;2.00;;;;;;;;4982026;28;51142;-56
2022/03/25 03:24:48;;;;;;;;;3.75;2.75;;;;;;;;4982482;28;51155;-56
2022/03/25 03:27:33;;;;;;;;;6.00;3.25;;;;;;;;4981968;28;51114;-57
2022/03/25 03:30:17;;;;;;;;;6.75;3.00;;;;;;;;4970811;28;51981;-57
2022/03/25 03:33:08;;;;;;;;;5.00;3.00;;;;;;;;4982092;28;51347;-58
2022/03/25 03:35:52;;;;;;;;;10.25;4.00;;;;;;;;4981555;28;51032;-57
2022/03/25 03:38:38;;;;;;;;;3.75;3.75;;;;;;;;4982034;28;51186;-56
2022/03/25 03:41:28;;;;;;;;;4.00;4.00;;;;;;;;4966830;28;51449;-55
2022/03/25 03:44:13;;;;;;;;;3.50;3.00;;;;;;;;4981717;28;51110;-54
2022/03/25 03:47:03;;;;;;;;;6.25;4.50;;;;;;;;4981685;28;51126;-57
2022/03/25 03:49:48;;;;;;;;;6.25;3.50;;;;;;;;4966908;28;51087;-57
2022/03/25 03:52:35;;;;;;;;;5.50;4.00;;;;;;;;4981480;28;51127;-55
2022/03/25 03:55:22;;;;;;;;;3.00;2.75;;;;;;;;4981640;28;51058;-56
2022/03/25 03:58:07;;;;;;;;;7.00;3.00;;;;;;;;4981170;28;51051;-55
2022/03/25 04:00:58;;;;;;;;;5.00;4.25;;;;;;;;4980928;28;51055;-57
2022/03/25 04:03:45;;;;;;;;;3.75;3.50;;;;;;;;4981918;28;51147;-57
2022/03/25 04:06:31;;;;;;;;;4.75;3.50;;;;;;;;4981445;28;51547;-57
2022/03/25 04:09:18;;;;;;;;;5.00;3.25;;;;;;;;4980989;28;51137;-56
2022/03/25 04:12:02;;;;;;;;;3.00;3.00;;;;;;;;4966424;28;51076;-58
2022/03/25 04:15:03;;;;;;;;;9.25;4.00;;;;;;;;4981445;28;51096;-57
2022/03/25 04:17:49;;;;;;;;;5.00;3.00;;;;;;;;4980822;28;51226;-55
2022/03/25 04:20:36;;;;;;;;;4.50;3.00;;;;;;;;4981102;28;51337;-55
2022/03/25 04:23:25;;;;;;;;;5.75;4.75;;;;;;;;4981024;28;51085;-57
2022/03/25 04:26:10;;;;;;;;;8.50;6.50;;;;;;;;4980718;28;51075;-56
2022/03/25 04:28:55;;;;;;;;;5.25;4.00;;;;;;;;4981228;28;51001;-56
2022/03/25 04:31:40;;;;;;;;;12.00;5.25;;;;;;;;4966547;28;51090;-58
2022/03/25 04:34:26;;;;;;;;;6.00;5.75;;;;;;;;4978495;28;51039;-57
2022/03/25 04:37:11;;;;;;;;;3.75;3.00;;;;;;;;4980477;28;51108;-58
2022/03/25 04:40:02;;;;;;;;;7.25;4.25;;;;;;;;4980782;28;51218;-57
2022/03/25 04:42:49;;;;;;;;;5.00;3.00;;;;;;;;4978436;28;51106;-57
2022/03/25 04:45:42;;;;;;;;;7.75;3.75;;;;;;;;4980845;28;51214;-57
2022/03/25 04:48:27;;;;;;;;;6.00;3.50;;;;;;;;4980879;28;51483;-57
2022/03/25 04:51:11;;;;;;;;;5.75;3.25;;;;;;;;4977319;28;51198;-57
2022/03/25 04:53:56;;;;;;;;;9.00;5.75;;;;;;;;4974494;28;51162;-56
2022/03/25 04:56:42;;;;;;;;;8.50;5.00;;;;;;;;4963465;28;51579;-56
2022/03/25 04:59:27;;;;;;;;;14.50;11.00;;;;;;;;4960589;28;51540;-58
2022/03/25 05:02:12;;;;;;;;;19.00;12.50;;;;;;;;4975127;28;51393;-57
2022/03/25 05:04:58;;;;;;;;;16.50;14.00;;;;;;;;4980572;28;51127;-58
2022/03/25 05:07:50;;;;;;;;;17.00;14.75;;;;;;;;4976010;28;51527;-55
2022/03/25 05:10:35;;;;;;;;;20.00;14.75;;;;;;;;4945655;28;51265;-55
2022/03/25 05:13:19;;;;;;;;;19.00;16.25;;;;;;;;4976308;28;51200;-56
2022/03/25 05:16:06;;;;;;;;;13.75;13.75;;;;;;;;4979175;28;51159;-56
2022/03/25 05:19:13;;;;;;;;;21.25;15.25;;;;;;;;4980061;28;51183;-57
2022/03/25 05:21:57;;;;;;;;;16.00;16.00;;;;;;;;4979838;28;51458;-56
2022/03/25 05:24:42;;;;;;;;;18.25;16.50;;;;;;;;4962290;28;51048;-55
2022/03/25 05:27:33;;;;;;;;;22.75;19.25;;;;;;;;4975458;28;51123;-55
2022/03/25 05:30:28;;;;;;;;;21.50;18.50;;;;;;;;4979716;28;51133;-51
2022/03/25 05:33:15;;;;;;;;;26.00;21.25;;;;;;;;4979640;28;51175;-51
2022/03/25 05:36:02;;;;;;;;;24.50;21.75;;;;;;;;4979643;28;51075;-52
2022/03/25 05:38:47;;;;;;;;;31.00;26.50;;;;;;;;4979246;28;51597;-53
2022/03/25 05:41:33;;;;;;;;;35.75;27.75;;;;;;;;4979444;28;51151;-50
2022/03/25 05:44:20;;;;;;;;;44.75;30.50;;;;;;;;4979985;28;51189;-52
2022/03/25 05:47:04;;;;;;;;;39.50;28.75;;;;;;;;4979273;28;51161;-51
2022/03/25 05:49:52;;;;;;;;;42.25;32.75;;;;;;;;4979777;28;51567;-52
2022/03/25 05:52:48;;;;;;;;;46.75;35.00;;;;;;;;4979307;28;51139;-53
2022/03/25 05:55:33;;;;;;;;;42.25;34.50;;;;;;;;4979757;28;51025;-48
2022/03/25 05:58:18;;;;;;;;;37.50;32.50;;;;;;;;4979216;28;51558;-51
2022/03/25 06:01:03;;;;;;;;;44.75;35.25;;;;;;;;4979280;28;51198;-51
2022/03/25 06:03:49;;;;;;;;;42.00;34.00;;;;;;;;4979478;28;51584;-50
2022/03/25 06:06:33;;;;;;;;;48.75;36.50;;;;;;;;4973989;28;51049;-52
2022/03/25 06:09:19;;;;;;;;;37.00;32.25;;;;;;;;4945092;28;51219;-53
2022/03/25 06:12:06;;;;;;;;;44.25;31.25;;;;;;;;4951620;28;51462;-50
2022/03/25 06:14:52;;;;;;;;;45.00;33.25;;;;;;;;4975231;28;51569;-49
2022/03/25 06:18:02;;;;;;;;;40.50;29.75;;;;;;;;4979333;28;51039;-49
2022/03/25 06:20:47;;;;;;;;;40.50;31.50;;;;;;;;4979838;28;51179;-50
2022/03/25 06:23:38;;;;;;;;;37.00;30.50;;;;;;;;4981655;28;51344;-53
2022/03/25 06:26:41;;;;;;;;;37.75;29.50;;;;;;;;4983064;28;51139;-52
2022/03/25 06:29:26;;;;;;;;;40.25;29.00;;;;;;;;4982946;28;51391;-51
2022/03/25 06:32:12;;;;;;;;;39.00;29.25;;;;;;;;4978340;28;51087;-53
2022/03/25 06:35:08;;;;;;;;;29.00;23.50;;;;;;;;4968396;28;51144;-53
2022/03/25 06:37:53;;;;;;;;;37.25;28.50;;;;;;;;4983192;28;51736;-53
2022/03/25 06:40:39;;;;;;;;;41.75;30.50;;;;;;;;4964173;28;51130;-48
2022/03/25 06:43:24;;;;;;;;;44.00;35.50;;;;;;;;4976176;28;51236;-50
2022/03/25 06:46:23;;;;;;;;;46.75;37.25;;;;;;;;4983084;28;51187;-49
2022/03/25 06:49:09;;;;;;;;;46.00;34.50;;;;;;;;4982517;28;51467;-53
2022/03/25 06:51:57;;;;;;;;;47.50;37.25;;;;;;;;4981701;28;51067;-49
2022/03/25 06:54:47;;;;;;;;;45.75;34.75;;;;;;;;4981798;28;51079;-50
2022/03/25 06:57:32;;;;;;;;;39.00;31.75;;;;;;;;4973721;28;51122;-48
2022/03/25 07:00:19;;;;;;;;;43.25;31.00;;;;;;;;4965752;28;51020;-51
2022/03/25 07:03:11;;;;;;;;;39.50;34.00;;;;;;;;4981735;28;51064;-52
2022/03/25 07:06:00;;;;;;;;;46.25;37.50;;;;;;;;4982243;28;51196;-52
2022/03/25 07:08:56;;;;;;;;;47.75;37.25;;;;;;;;4982233;28;51235;-52
2022/03/25 07:11:42;;;;;;;;;45.25;35.25;;;;;;;;4982670;28;51060;-52
2022/03/25 07:14:27;;;;;;;;;47.50;36.75;;;;;;;;4966202;28;52812;-49
2022/03/25 07:17:21;;;;;;;;;41.50;35.75;;;;;;;;4980351;28;51199;-49
2022/03/25 07:20:06;;;;;;;;;44.50;36.00;;;;;;;;4980299;28;51340;-50
2022/03/25 07:23:02;;;;;;;;;45.50;36.50;;;;;;;;4973214;28;51518;-53
2022/03/25 07:25:49;;;;;;;;;52.75;38.25;;;;;;;;4973296;28;51147;-50
2022/03/25 07:28:38;;;;;;;;;48.75;39.50;;;;;;;;4976970;28;51443;-53
2022/03/25 07:31:28;;;;;;;;;49.50;38.00;;;;;;;;4979867;28;52062;-50
2022/03/25 07:34:37;;;;;;;;;52.50;40.25;;;;;;;;4971051;28;51114;-49
2022/03/25 07:37:22;;;;;;;;;47.75;36.00;;;;;;;;4973968;28;51131;-52
2022/03/25 07:40:12;;;;;;;;;46.00;35.50;;;;;;;;4980861;28;51588;-51
2022/03/25 07:43:03;;;;;;;;;50.50;39.50;;;;;;;;4975382;28;51103;-49
2022/03/25 07:45:54;;;;;;;;;49.25;38.25;;;;;;;;4979459;28;51727;-48
2022/03/25 07:49:19;;;;;;;;;41.50;34.00;;;;;;;;4975505;28;51207;-49
2022/03/25 07:52:06;;;;;;;;;33.50;28.25;;;;;;;;4965530;28;51216;-48
2022/03/25 07:55:05;;;;;;;;;33.25;27.75;;;;;;;;4955696;28;51518;-49
2022/03/25 07:57:57;;;;;;;;;24.25;18.75;;;;;;;;4974175;28;51449;-47
2022/03/25 08:01:01;;;;;;;;;20.50;17.50;;;;;;;;4972498;28;51091;-48
2022/03/25 08:04:01;;;;;;;;;15.00;13.50;;;;;;;;4963269;28;51088;-51
2022/03/25 08:06:50;;;;;;;;;15.25;13.75;;;;;;;;4981338;28;51009;-51
2022/03/25 08:09:38;;;;;;;;;15.00;12.25;;;;;;;;4981294;28;51080;-51
2022/03/25 08:12:23;;;;;;;;;17.25;14.75;;;;;;;;4977729;28;51547;-48
2022/03/25 08:15:08;;;;;;;;;18.25;13.50;;;;;;;;4976951;28;51164;-50
2022/03/25 08:17:55;;;;;;;;;12.75;11.25;;;;;;;;4979175;28;51350;-53
2022/03/25 08:20:59;;;;;;;;;12.25;10.50;;;;;;;;4968266;28;51179;-51
2022/03/25 08:29:55;;;;;;;;;12.00;10.00;;;;;;;;4980050;28;51176;-52
2022/03/25 08:32:42;;;;;;;;;10.00;8.25;;;;;;;;4958397;28;51396;-53
2022/03/25 08:35:47;;;;;;;;;10.00;8.00;;;;;;;;4974383;28;51114;-52
2022/03/25 08:38:41;;;;;;;;;7.00;7.00;;;;;;;;4977124;28;51414;-54
2022/03/25 08:41:37;;;;;;;;;10.25;5.50;;;;;;;;4974750;28;51206;-51
2022/03/25 08:44:23;;;;;;;;;5.75;5.00;;;;;;;;4976621;28;51162;-51
2022/03/25 08:47:10;;;;;;;;;7.00;7.00;;;;;;;;4977658;28;51364;-52
2022/03/25 08:49:56;;;;;;;;;5.75;5.50;;;;;;;;4978654;28;51267;-51
2022/03/25 08:52:41;;;;;;;;;15.25;11.25;;;;;;;;4972877;28;51209;-50
2022/03/25 08:55:26;;;;;;;;;13.50;7.50;;;;;;;;4973588;28;51076;-50
2022/03/25 08:58:11;;;;;;;;;6.00;4.50;;;;;;;;4977809;28;51614;-51
2022/03/25 09:00:56;;;;;;;;;5.50;4.50;;;;;;;;4980013;28;51286;-52
2022/03/25 09:04:01;;;;;;;;;7.00;6.00;;;;;;;;4974576;28;51327;-51
2022/03/25 09:06:47;;;;;;;;;11.00;8.00;;;;;;;;4979813;28;51150;-50
2022/03/25 09:09:31;;;;;;;;;6.75;6.00;;;;;;;;4979743;28;51099;-51
2022/03/25 09:12:16;;;;;;;;;6.75;3.50;;;;;;;;4979968;28;51213;-51
2022/03/25 09:15:07;;;;;;;;;9.00;6.50;;;;;;;;4979911;28;51419;-53
2022/03/25 09:17:53;;;;;;;;;11.75;9.00;;;;;;;;4978577;28;51151;-52
2022/03/25 09:20:38;;;;;;;;;7.00;5.00;;;;;;;;4979766;28;51087;-52
2022/03/25 09:23:26;;;;;;;;;7.00;5.00;;;;;;;;4978449;28;51375;-51
2022/03/25 09:26:33;;;;;;;;;5.25;4.00;;;;;;;;4979561;28;51418;-52
2022/03/25 09:29:17;;;;;;;;;7.00;4.00;;;;;;;;4979663;28;50989;-52
2022/03/25 09:32:05;;;;;;;;;7.25;5.50;;;;;;;;4978773;28;51142;-53
2022/03/25 09:35:13;;;;;;;;;7.00;5.00;;;;;;;;4975427;28;51180;-53
2022/03/25 09:37:59;;;;;;;;;7.00;5.00;;;;;;;;4978579;28;51127;-50
2022/03/25 09:40:47;;;;;;;;;7.50;5.00;;;;;;;;4970659;28;51065;-50
2022/03/25 09:43:38;;;;;;;;;6.25;4.00;;;;;;;;4970388;28;50985;-53
2022/03/25 09:46:23;;;;;;;;;6.00;3.50;;;;;;;;4979599;28;51162;-49
2022/03/25 09:49:11;;;;;;;;;4.25;4.25;;;;;;;;4979459;28;51155;-50
2022/03/25 09:52:07;;;;;;;;;8.50;5.75;;;;;;;;4978964;28;51089;-52
2022/03/25 09:54:51;;;;;;;;;6.00;4.00;;;;;;;;4977097;28;52469;-50
2022/03/25 09:57:37;;;;;;;;;4.75;2.50;;;;;;;;4967429;28;51268;-51
2022/03/25 10:23:45;;;;;;;;;8.00;5.25;;;;;;;;4939584;28;51502;-47
2022/03/25 10:26:36;;;;;;;;;10.00;5.00;;;;;;;;4941473;28;51190;-47
2022/03/25 10:29:31;;;;;;;;;6.25;3.25;;;;;;;;4914783;28;51141;-46
2022/03/25 10:32:18;;;;;;;;;7.00;3.00;;;;;;;;4921849;28;51169;-47
2022/03/25 10:35:07;;;;;;;;;6.00;3.00;;;;;;;;4922177;28;51310;-47
2022/03/25 10:38:07;;;;;;;;;5.50;4.00;;;;;;;;4921272;28;51276;-46
2022/03/25 10:40:57;;;;;;;;;4.50;2.75;;;;;;;;4919537;28;51291;-46
2022/03/25 10:43:51;;;;;;;;;5.50;4.50;;;;;;;;4921732;28;51054;-46
2022/03/25 10:46:53;;;;;;;;;8.25;7.00;;;;;;;;4922025;28;51186;-46
2022/03/25 10:49:43;;;;;;;;;6.75;5.25;;;;;;;;4908540;28;51055;-47
2022/03/25 10:52:36;;;;;;;;;5.50;4.00;;;;;;;;4920070;28;51553;-47
2022/03/25 10:55:26;;;;;;;;;6.75;6.25;;;;;;;;4921676;28;51079;-46
2022/03/25 10:58:12;;;;;;;;;7.75;5.50;;;;;;;;4926774;28;51681;-46
2022/03/25 11:00:57;;;;;;;;;8.50;5.50;;;;;;;;4962021;28;51517;-47
2022/03/25 11:03:42;;;;;;;;;7.75;5.00;;;;;;;;4962179;28;51082;-46
2022/03/25 11:06:26;;;;;;;;;5.25;5.25;;;;;;;;4962726;28;51096;-47
2022/03/25 11:09:11;;;;;;;;;8.75;5.25;;;;;;;;4961168;28;51107;-47
2022/03/25 11:11:56;;;;;;;;;11.00;8.00;;;;;;;;4962033;28;51184;-47
2022/03/25 11:14:40;;;;;;;;;6.50;5.25;;;;;;;;4962024;28;51542;-47
2022/03/25 11:17:33;;;;;;;;;8.25;4.25;;;;;;;;4962435;28;51150;-46
2022/03/25 11:20:20;;;;;;;;;10.75;5.75;;;;;;;;4961360;28;51188;-47
2022/03/25 11:23:04;;;;;;;;;5.75;5.25;;;;;;;;4962054;28;51165;-48
2022/03/25 11:25:54;;;;;;;;;5.75;4.50;;;;;;;;4979257;28;51078;-47
2022/03/25 11:28:38;;;;;;;;;7.75;5.00;;;;;;;;4980950;28;51139;-47
2022/03/25 11:31:24;;;;;;;;;6.00;3.00;;;;;;;;4981223;28;51207;-46
2022/03/25 11:34:10;;;;;;;;;10.50;4.50;;;;;;;;4978588;28;51084;-46
2022/03/25 11:37:13;;;;;;;;;7.25;4.50;;;;;;;;4981012;28;51158;-49
2022/03/25 11:40:16;;;;;;;;;6.25;4.00;;;;;;;;4979142;28;51338;-47
2022/03/25 11:43:11;;;;;;;;;5.75;4.25;;;;;;;;4980693;28;51111;-46
2022/03/25 11:45:58;;;;;;;;;7.00;6.00;;;;;;;;4980897;28;51488;-47
2022/03/25 11:48:43;;;;;;;;;6.25;6.25;;;;;;;;4981130;28;51143;-46
2022/03/25 11:51:30;;;;;;;;;4.75;4.75;;;;;;;;4980445;28;51408;-47
2022/03/25 11:54:33;;;;;;;;;3.00;1.75;;;;;;;;4980522;28;51146;-46
2022/03/25 11:57:24;;;;;;;;;4.25;0.50;;;;;;;;4981537;28;51049;-43
2022/03/25 12:00:23;;;;;;;;;4.00;3.25;;;;;;;;4977596;28;51112;-47
2022/03/25 12:03:12;;;;;;;;;4.25;2.00;;;;;;;;4980695;28;51605;-44
2022/03/25 12:06:02;;;;;;;;;1.00;1.00;;;;;;;;4970428;28;51194;-45
2022/03/25 12:09:08;;;;;;;;;5.75;3.00;;;;;;;;4961802;28;51030;-44
2022/03/25 12:11:58;;;;;;;;;3.00;0.75;;;;;;;;4979443;28;51462;-49
2022/03/25 12:15:13;;;;;;;;;3.00;1.00;;;;;;;;4979927;28;51163;-46
2022/03/25 12:18:15;;;;;;;;;1.00;1.00;;;;;;;;4972772;28;51299;-47
2022/03/25 12:21:00;;;;;;;;;4.50;2.00;;;;;;;;4978301;28;51163;-44
2022/03/25 12:23:54;;;;;;;;;2.25;1.00;;;;;;;;4974547;28;51207;-48
2022/03/25 12:26:41;;;;;;;;;0.50;0.00;;;;;;;;4980156;28;51356;-47
2022/03/25 12:29:50;;;;;;;;;1.00;1.00;;;;;;;;4969628;28;51152;-47
2022/03/25 12:32:36;;;;;;;;;2.50;1.00;;;;;;;;4977618;28;51253;-47
2022/03/25 12:35:26;;;;;;;;;17.50;12.25;;;;;;;;4979881;28;51215;-47
2022/03/25 12:38:24;;;;;;;;;7.50;6.75;;;;;;;;4979331;28;51391;-47
2022/03/25 12:41:08;;;;;;;;;3.00;1.75;;;;;;;;4979874;28;51767;-46
2022/03/25 12:44:01;;;;;;;;;3.50;2.00;;;;;;;;4979823;28;51503;-47
2022/03/25 12:46:47;;;;;;;;;3.50;1.75;;;;;;;;4974780;28;51168;-47
2022/03/25 12:49:32;;;;;;;;;4.50;2.00;;;;;;;;4979711;28;51092;-46
2022/03/25 12:52:23;;;;;;;;;4.00;2.00;;;;;;;;4979384;28;51568;-46
2022/03/25 12:55:15;;;;;;;;;3.25;1.75;;;;;;;;4980180;28;51082;-46
2022/03/25 12:58:03;;;;;;;;;3.50;1.75;;;;;;;;4978695;28;51409;-46
2022/03/25 13:00:49;;;;;;;;;3.25;2.00;;;;;;;;4968924;28;51184;-46
2022/03/25 13:03:34;;;;;;;;;1.50;1.50;;;;;;;;4970950;28;51464;-46
2022/03/25 13:06:18;;;;;;;;;3.25;0.75;;;;;;;;4979323;28;51604;-47
2022/03/25 13:09:03;;;;;;;;;0.75;0.25;;;;;;;;4977801;28;51353;-46
2022/03/25 13:11:53;;;;;;;;;2.50;1.00;;;;;;;;4980908;28;51148;-46
2022/03/25 13:14:51;;;;;;;;;2.00;0.75;;;;;;;;4973574;28;51393;-47
2022/03/25 13:17:40;;;;;;;;;1.50;1.50;;;;;;;;4978800;28;51013;-47
2022/03/25 13:20:26;;;;;;;;;3.25;1.75;;;;;;;;4977560;28;51206;-47
2022/03/25 13:23:12;;;;;;;;;1.00;1.00;;;;;;;;4977423;28;51393;-46
2022/03/25 13:26:00;;;;;;;;;2.00;2.00;;;;;;;;4977150;28;51339;-46
2022/03/25 13:28:46;;;;;;;;;2.00;2.00;;;;;;;;4977475;28;51245;-47
2022/03/25 13:31:31;;;;;;;;;2.50;1.50;;;;;;;;4963292;28;51231;-46
2022/03/25 13:34:18;;;;;;;;;3.00;1.00;;;;;;;;4978393;28;51249;-48
2022/03/25 13:37:04;;;;;;;;;2.00;2.00;;;;;;;;4979183;28;51037;-46
2022/03/25 13:39:50;;;;;;;;;1.50;1.50;;;;;;;;4936984;28;51153;-47
2022/03/25 13:42:38;;;;;;;;;2.75;1.00;;;;;;;;4979463;28;51414;-47
2022/03/25 13:45:24;;;;;;;;;0.75;0.75;;;;;;;;4978360;28;51120;-46
2022/03/25 13:48:15;;;;;;;;;1.00;1.00;;;;;;;;4979087;28;51445;-48
2022/03/25 13:51:00;;;;;;;;;0.00;0.00;;;;;;;;4979296;28;51164;-47
2022/03/25 13:53:47;;;;;;;;;2.00;2.00;;;;;;;;4979082;28;51451;-47
2022/03/25 13:56:49;;;;;;;;;3.25;2.00;;;;;;;;4979019;28;51259;-47
2022/03/25 13:59:41;;;;;;;;;3.25;2.00;;;;;;;;4979102;28;51305;-46
2022/03/25 14:02:28;;;;;;;;;8.25;6.00;;;;;;;;4978391;28;51108;-49
2022/03/25 14:05:23;;;;;;;;;6.25;3.50;;;;;;;;4986879;28;51124;-46
2022/03/25 14:08:10;;;;;;;;;2.50;2.50;;;;;;;;4969220;28;51464;-47
2022/03/25 14:11:00;;;;;;;;;5.50;3.75;;;;;;;;4964229;28;51395;-46
2022/03/25 14:14:05;;;;;;;;;6.00;4.50;;;;;;;;4977740;28;51679;-46
2022/03/25 14:16:53;;;;;;;;;3.75;3.75;;;;;;;;4976429;28;51157;-49
2022/03/25 14:19:42;;;;;;;;;2.75;2.00;;;;;;;;4974492;28;51171;-46
2022/03/25 14:22:26;;;;;;;;;5.00;2.50;;;;;;;;4977667;28;52490;-46
2022/03/25 14:25:12;;;;;;;;;4.00;3.00;;;;;;;;4974978;28;51804;-47
2022/03/25 14:28:05;;;;;;;;;7.00;5.00;;;;;;;;4978719;28;51119;-46
2022/03/25 14:30:51;;;;;;;;;7.75;7.75;;;;;;;;4979653;28;51007;-47
2022/03/25 14:33:36;;;;;;;;;6.00;5.50;;;;;;;;4978545;28;51206;-46
2022/03/25 14:36:22;;;;;;;;;9.25;5.00;;;;;;;;4978913;28;51147;-51
2022/03/25 14:39:09;;;;;;;;;10.75;8.75;;;;;;;;4959004;28;51124;-46
2022/03/25 14:41:53;;;;;;;;;6.00;5.00;;;;;;;;4967851;28;51239;-46
2022/03/25 14:44:50;;;;;;;;;8.00;8.00;;;;;;;;4980484;28;51361;-47
2022/03/25 14:47:38;;;;;;;;;5.75;4.75;;;;;;;;4972271;28;51160;-49
2022/03/25 14:50:24;;;;;;;;;6.75;5.25;;;;;;;;4964869;28;51054;-50
2022/03/25 14:53:09;;;;;;;;;8.50;7.75;;;;;;;;4969692;28;51176;-46
2022/03/25 14:55:54;;;;;;;;;7.00;6.00;;;;;;;;4968914;28;51153;-46
2022/03/25 14:58:38;;;;;;;;;6.75;5.25;;;;;;;;4968726;28;51099;-47
2022/03/25 15:01:23;;;;;;;;;6.75;4.25;;;;;;;;4966764;28;51154;-46
2022/03/25 15:04:10;;;;;;;;;6.25;4.25;;;;;;;;4961013;28;51226;-47
2022/03/25 15:06:54;;;;;;;;;6.25;4.25;;;;;;;;4973452;28;51229;-47
2022/03/25 15:09:40;;;;;;;;;7.00;4.25;;;;;;;;4966499;28;51419;-46
2022/03/25 15:12:24;;;;;;;;;7.25;5.25;;;;;;;;4969673;28;51179;-46
2022/03/25 15:15:10;;;;;;;;;5.75;5.50;;;;;;;;4969713;28;51081;-46
2022/03/25 15:17:54;;;;;;;;;15.25;7.00;;;;;;;;4970546;28;51125;-46
2022/03/25 15:20:40;;;;;;;;;7.50;6.00;;;;;;;;4954072;28;51211;-49
2022/03/25 15:23:24;;;;;;;;;6.00;4.00;;;;;;;;4963248;28;51550;-48
2022/03/25 15:26:09;;;;;;;;;7.00;5.00;;;;;;;;4971825;28;51050;-47
2022/03/25 15:28:53;;;;;;;;;6.25;5.50;;;;;;;;4957958;28;51129;-46
2022/03/25 15:34:41;;;;;;;;;5.50;5.50;;;;;;;;4973730;28;51193;-46
2022/03/25 15:37:26;;;;;;;;;3.50;3.50;;;;;;;;4970321;28;51518;-46
2022/03/25 15:40:11;;;;;;;;;9.00;5.00;;;;;;;;4968864;28;52227;-47
2022/03/25 15:42:55;;;;;;;;;8.75;6.75;;;;;;;;4968971;28;51169;-47
2022/03/25 15:45:47;;;;;;;;;8.25;5.75;;;;;;;;4966943;28;51110;-47
2022/03/25 15:48:51;;;;;;;;;9.00;6.25;;;;;;;;4963592;28;51253;-47
2022/03/25 15:51:49;;;;;;;;;9.00;5.75;;;;;;;;4966395;28;51170;-48
2022/03/25 15:55:02;;;;;;;;;9.00;5.75;;;;;;;;4971755;28;51145;-46
2022/03/25 15:58:00;;;;;;;;;5.50;5.50;;;;;;;;4973569;28;51115;-46
2022/03/25 16:00:46;;;;;;;;;4.75;4.25;;;;;;;;4967823;28;51539;-46
2022/03/25 16:03:30;;;;;;;;;5.00;4.50;;;;;;;;4968217;28;51267;-47
2022/03/25 16:06:17;;;;;;;;;7.00;5.25;;;;;;;;4958796;28;51440;-46
2022/03/25 16:09:19;;;;;;;;;6.50;4.75;;;;;;;;4975653;28;51087;-47
2022/03/25 16:12:17;;;;;;;;;11.25;9.25;;;;;;;;4972447;28;51625;-47
2022/03/25 16:15:23;;;;;;;;;11.25;7.25;;;;;;;;4969784;28;51168;-46
2022/03/25 16:18:12;;;;;;;;;9.00;6.75;;;;;;;;4968309;28;51203;-48
2022/03/25 16:21:16;;;;;;;;;11.25;7.25;;;;;;;;4971875;28;51155;-46
2022/03/25 16:24:01;;;;;;;;;13.25;6.75;;;;;;;;4971732;28;51073;-47
2022/03/25 16:26:45;;;;;;;;;7.75;5.00;;;;;;;;4965628;28;51543;-46
2022/03/25 16:29:29;;;;;;;;;8.75;5.75;;;;;;;;4970843;28;51157;-47
2022/03/25 16:32:14;;;;;;;;;8.25;8.25;;;;;;;;4966159;28;51247;-48
2022/03/25 16:34:59;;;;;;;;;8.50;5.50;;;;;;;;4968735;28;51207;-47
2022/03/25 16:37:45;;;;;;;;;6.25;5.50;;;;;;;;4969392;28;51265;-50
2022/03/25 16:40:31;;;;;;;;;8.75;6.50;;;;;;;;4964128;28;51524;-47
2022/03/25 16:43:29;;;;;;;;;10.00;6.75;;;;;;;;4975823;28;51659;-46
2022/03/25 16:46:15;;;;;;;;;8.50;4.50;;;;;;;;4979841;28;50988;-50
2022/03/25 16:49:03;;;;;;;;;7.00;5.25;;;;;;;;4977448;28;51040;-47
2022/03/25 16:51:49;;;;;;;;;10.50;7.50;;;;;;;;4976371;28;51683;-48
2022/03/25 16:54:35;;;;;;;;;9.75;7.25;;;;;;;;4958471;28;51332;-47
2022/03/25 16:57:20;;;;;;;;;8.25;6.00;;;;;;;;4976479;28;51352;-48
2022/03/25 17:00:07;;;;;;;;;14.50;9.00;;;;;;;;4979489;28;51084;-48
2022/03/25 17:02:51;;;;;;;;;14.00;10.00;;;;;;;;4968412;28;51052;-49
2022/03/25 17:05:41;;;;;;;;;13.00;9.75;;;;;;;;4973277;28;52433;-48
2022/03/25 17:08:28;;;;;;;;;12.75;10.25;;;;;;;;4979322;28;51451;-46
2022/03/25 17:11:16;;;;;;;;;10.25;9.00;;;;;;;;4965149;28;51174;-46
2022/03/25 17:14:10;;;;;;;;;10.00;8.75;;;;;;;;4959937;28;51097;-47
2022/03/25 17:16:56;;;;;;;;;10.00;6.25;;;;;;;;4978563;28;51568;-49
2022/03/25 17:19:40;;;;;;;;;15.00;12.25;;;;;;;;4964285;28;51069;-48